sensor_id;sensor_type;location;lat;lon;timestamp;P1;durP1;ratioP1;P2;durP2;ratioP2
2211;SDS011;48849;48.758;9.158;2024-01-30T00:01:14;6.70;;;6.03;;
2211;SDS011;48849;48.758;9.158;2024-01-30T00:03:41;7.88;;;6.05;;
2211;SDS011;48849;48.758;9.158;2024-01-30T00:06:08;8.23;;;6.55;;
2211;SDS011;48849;48.758;9.158;2024-01-30T00:08:35;7.15;;;6.30;;
2211;SDS011;48849;48.758;9.158;2024-01-30T00:11:02;7.10;;;6.40;;
2211;SDS011;48849;48.758;9.158;2024-01-30T00:13:29;6.65;;;5.75;;
2211;SDS011;48849;48.758;9.158;2024-01-30T00:15:55;6.68;;;6.00;;
2211;SDS011;48849;48.758;9.158;2024-01-30T00:18:24;6.78;;;6.05;;
2211;SDS011;48849;48.758;9.158;2024-01-30T00:20:50;8.38;;;6.32;;
2211;SDS011;48849;48.758;9.158;2024-01-30T00:23:17;6.78;;;6.05;;
2211;SDS011;48849;48.758;9.158;2024-01-30T00:25:44;6.78;;;6.07;;
2211;SDS011;48849;48.758;9.158;2024-01-30T00:28:11;8.02;;;6.45;;
2211;SDS011;48849;48.758;9.158;2024-01-30T00:30:37;6.28;;;5.65;;
2211;SDS011;48849;48.758;9.158;2024-01-30T00:33:04;7.25;;;5.65;;
2211;SDS011;48849;48.758;9.158;2024-01-30T00:35:32;8.68;;;6.50;;
2211;SDS011;48849;48.758;9.158;2024-01-30T00:37:59;7.18;;;5.88;;
2211;SDS011;48849;48.758;9.158;2024-01-30T00:40:26;5.97;;;5.38;;
2211;SDS011;48849;48.758;9.158;2024-01-30T00:42:52;6.40;;;5.80;;
2211;SDS011;48849;48.758;9.158;2024-01-30T00:45:19;7.07;;;6.20;;
2211;SDS011;48849;48.758;9.158;2024-01-30T00:47:46;6.55;;;5.30;;
2211;SDS011;48849;48.758;9.158;2024-01-30T00:50:12;7.70;;;6.07;;
2211;SDS011;48849;48.758;9.158;2024-01-30T00:52:40;7.20;;;5.93;;
2211;SDS011;48849;48.758;9.158;2024-01-30T00:55:10;8.95;;;6.38;;
2211;SDS011;48849;48.758;9.158;2024-01-30T00:57:36;5.72;;;5.22;;
2211;SDS011;48849;48.758;9.158;2024-01-30T01:00:03;6.40;;;5.80;;
2211;SDS011;48849;48.758;9.158;2024-01-30T01:02:33;7.55;;;5.75;;
2211;SDS011;48849;48.758;9.158;2024-01-30T01:05:00;7.00;;;5.93;;
2211;SDS011;48849;48.758;9.158;2024-01-30T01:07:27;7.50;;;5.97;;
2211;SDS011;48849;48.758;9.158;2024-01-30T01:09:55;6.80;;;6.10;;
2211;SDS011;48849;48.758;9.158;2024-01-30T01:12:22;6.28;;;5.68;;
2211;SDS011;48849;48.758;9.158;2024-01-30T01:14:49;7.20;;;5.60;;
2211;SDS011;48849;48.758;9.158;2024-01-30T01:17:15;7.53;;;6.50;;
2211;SDS011;48849;48.758;9.158;2024-01-30T01:19:43;9.75;;;5.93;;
2211;SDS011;48849;48.758;9.158;2024-01-30T01:22:10;8.70;;;6.20;;
2211;SDS011;48849;48.758;9.158;2024-01-30T01:24:37;6.43;;;5.80;;
2211;SDS011;48849;48.758;9.158;2024-01-30T01:27:05;7.03;;;6.32;;
2211;SDS011;48849;48.758;9.158;2024-01-30T01:29:31;7.75;;;6.07;;
2211;SDS011;48849;48.758;9.158;2024-01-30T01:31:58;8.02;;;6.88;;
2211;SDS011;48849;48.758;9.158;2024-01-30T01:34:25;7.60;;;6.80;;
2211;SDS011;48849;48.758;9.158;2024-01-30T01:36:51;6.30;;;5.70;;
2211;SDS011;48849;48.758;9.158;2024-01-30T01:39:20;7.53;;;5.93;;
2211;SDS011;48849;48.758;9.158;2024-01-30T01:41:48;6.20;;;5.60;;
2211;SDS011;48849;48.758;9.158;2024-01-30T01:44:16;6.43;;;5.82;;
2211;SDS011;48849;48.758;9.158;2024-01-30T01:46:43;8.00;;;5.85;;
2211;SDS011;48849;48.758;9.158;2024-01-30T01:49:10;8.02;;;6.38;;
2211;SDS011;48849;48.758;9.158;2024-01-30T01:51:37;7.03;;;5.75;;
2211;SDS011;48849;48.758;9.158;2024-01-30T01:54:06;7.40;;;5.85;;
2211;SDS011;48849;48.758;9.158;2024-01-30T01:56:33;7.63;;;5.88;;
2211;SDS011;48849;48.758;9.158;2024-01-30T01:59:04;8.32;;;6.60;;
2211;SDS011;48849;48.758;9.158;2024-01-30T02:01:33;7.70;;;6.50;;
2211;SDS011;48849;48.758;9.158;2024-01-30T02:04:00;8.48;;;7.07;;
2211;SDS011;48849;48.758;9.158;2024-01-30T02:06:27;7.30;;;6.60;;
2211;SDS011;48849;48.758;9.158;2024-01-30T02:08:54;7.85;;;5.53;;
2211;SDS011;48849;48.758;9.158;2024-01-30T02:11:21;7.07;;;6.38;;
2211;SDS011;48849;48.758;9.158;2024-01-30T02:13:48;6.07;;;5.50;;
2211;SDS011;48849;48.758;9.158;2024-01-30T02:16:15;6.90;;;5.70;;
2211;SDS011;48849;48.758;9.158;2024-01-30T02:18:44;6.30;;;5.70;;
2211;SDS011;48849;48.758;9.158;2024-01-30T02:21:14;7.93;;;5.00;;
2211;SDS011;48849;48.758;9.158;2024-01-30T02:23:42;6.18;;;5.55;;
2211;SDS011;48849;48.758;9.158;2024-01-30T02:26:09;6.53;;;5.60;;
2211;SDS011;48849;48.758;9.158;2024-01-30T02:28:36;7.03;;;5.95;;
2211;SDS011;48849;48.758;9.158;2024-01-30T02:31:03;6.38;;;5.60;;
2211;SDS011;48849;48.758;9.158;2024-01-30T02:33:30;6.80;;;6.20;;
2211;SDS011;48849;48.758;9.158;2024-01-30T02:35:57;6.70;;;5.95;;
2211;SDS011;48849;48.758;9.158;2024-01-30T02:38:25;6.97;;;6.15;;
2211;SDS011;48849;48.758;9.158;2024-01-30T02:40:53;6.15;;;5.55;;
2211;SDS011;48849;48.758;9.158;2024-01-30T02:43:20;6.68;;;5.90;;
2211;SDS011;48849;48.758;9.158;2024-01-30T02:45:46;6.27;;;5.20;;
2211;SDS011;48849;48.758;9.158;2024-01-30T02:48:13;6.72;;;5.72;;
2211;SDS011;48849;48.758;9.158;2024-01-30T02:50:39;6.75;;;5.65;;
2211;SDS011;48849;48.758;9.158;2024-01-30T02:53:06;6.20;;;5.68;;
2211;SDS011;48849;48.758;9.158;2024-01-30T02:55:34;6.88;;;5.38;;
2211;SDS011;48849;48.758;9.158;2024-01-30T02:58:01;7.25;;;5.72;;
2211;SDS011;48849;48.758;9.158;2024-01-30T03:00:27;6.00;;;5.20;;
2211;SDS011;48849;48.758;9.158;2024-01-30T03:02:54;6.53;;;5.93;;
2211;SDS011;48849;48.758;9.158;2024-01-30T03:05:21;6.40;;;5.75;;
2211;SDS011;48849;48.758;9.158;2024-01-30T03:07:47;6.13;;;5.60;;
2211;SDS011;48849;48.758;9.158;2024-01-30T03:10:14;6.65;;;5.63;;
2211;SDS011;48849;48.758;9.158;2024-01-30T03:12:42;5.75;;;5.25;;
2211;SDS011;48849;48.758;9.158;2024-01-30T03:15:09;6.82;;;6.00;;
2211;SDS011;48849;48.758;9.158;2024-01-30T03:17:36;6.60;;;6.03;;
2211;SDS011;48849;48.758;9.158;2024-01-30T03:20:03;5.50;;;5.05;;
2211;SDS011;48849;48.758;9.158;2024-01-30T03:22:31;6.30;;;5.70;;
2211;SDS011;48849;48.758;9.158;2024-01-30T03:24:58;6.40;;;5.70;;
2211;SDS011;48849;48.758;9.158;2024-01-30T03:27:24;6.57;;;5.97;;
2211;SDS011;48849;48.758;9.158;2024-01-30T03:29:53;5.90;;;5.35;;
2211;SDS011;48849;48.758;9.158;2024-01-30T03:32:20;6.10;;;5.60;;
2211;SDS011;48849;48.758;9.158;2024-01-30T03:34:45;6.83;;;5.67;;
2211;SDS011;48849;48.758;9.158;2024-01-30T03:37:12;6.93;;;6.18;;
2211;SDS011;48849;48.758;9.158;2024-01-30T03:39:39;8.95;;;5.75;;
2211;SDS011;48849;48.758;9.158;2024-01-30T03:42:05;6.88;;;6.00;;
2211;SDS011;48849;48.758;9.158;2024-01-30T03:44:32;6.45;;;5.65;;
2211;SDS011;48849;48.758;9.158;2024-01-30T03:47:00;6.70;;;6.10;;
2211;SDS011;48849;48.758;9.158;2024-01-30T03:49:27;6.07;;;5.22;;
2211;SDS011;48849;48.758;9.158;2024-01-30T03:51:54;6.97;;;6.22;;
2211;SDS011;48849;48.758;9.158;2024-01-30T03:54:20;9.13;;;7.07;;
2211;SDS011;48849;48.758;9.158;2024-01-30T03:56:47;7.63;;;5.75;;
2211;SDS011;48849;48.758;9.158;2024-01-30T03:59:14;7.10;;;6.18;;
2211;SDS011;48849;48.758;9.158;2024-01-30T04:01:41;7.53;;;6.20;;
2211;SDS011;48849;48.758;9.158;2024-01-30T04:04:09;7.90;;;6.30;;
2211;SDS011;48849;48.758;9.158;2024-01-30T04:06:36;7.45;;;6.72;;
2211;SDS011;48849;48.758;9.158;2024-01-30T04:09:03;6.85;;;6.20;;
2211;SDS011;48849;48.758;9.158;2024-01-30T04:11:29;6.45;;;5.85;;
2211;SDS011;48849;48.758;9.158;2024-01-30T04:13:56;8.13;;;5.70;;
2211;SDS011;48849;48.758;9.158;2024-01-30T04:16:23;6.80;;;6.00;;
2211;SDS011;48849;48.758;9.158;2024-01-30T04:18:50;6.70;;;6.10;;
2211;SDS011;48849;48.758;9.158;2024-01-30T04:21:20;7.57;;;6.80;;
2211;SDS011;48849;48.758;9.158;2024-01-30T04:23:47;7.85;;;6.15;;
2211;SDS011;48849;48.758;9.158;2024-01-30T04:26:13;7.28;;;6.25;;
2211;SDS011;48849;48.758;9.158;2024-01-30T04:28:41;7.63;;;6.93;;
2211;SDS011;48849;48.758;9.158;2024-01-30T04:31:07;8.82;;;7.10;;
2211;SDS011;48849;48.758;9.158;2024-01-30T04:33:34;8.75;;;6.97;;
2211;SDS011;48849;48.758;9.158;2024-01-30T04:36:01;8.23;;;7.07;;
2211;SDS011;48849;48.758;9.158;2024-01-30T04:38:31;7.28;;;6.20;;
2211;SDS011;48849;48.758;9.158;2024-01-30T04:40:57;7.20;;;6.50;;
2211;SDS011;48849;48.758;9.158;2024-01-30T04:43:24;8.38;;;6.45;;
2211;SDS011;48849;48.758;9.158;2024-01-30T04:45:52;8.85;;;5.82;;
2211;SDS011;48849;48.758;9.158;2024-01-30T04:48:19;5.65;;;5.15;;
2211;SDS011;48849;48.758;9.158;2024-01-30T04:50:45;8.00;;;5.55;;
2211;SDS011;48849;48.758;9.158;2024-01-30T04:53:12;6.95;;;6.35;;
2211;SDS011;48849;48.758;9.158;2024-01-30T04:55:40;6.93;;;6.32;;
2211;SDS011;48849;48.758;9.158;2024-01-30T04:58:07;7.72;;;6.85;;
2211;SDS011;48849;48.758;9.158;2024-01-30T05:00:34;11.20;;;6.60;;
2211;SDS011;48849;48.758;9.158;2024-01-30T05:03:00;7.97;;;6.60;;
2211;SDS011;48849;48.758;9.158;2024-01-30T05:05:27;8.27;;;6.35;;
2211;SDS011;48849;48.758;9.158;2024-01-30T05:07:54;7.97;;;7.18;;
2211;SDS011;48849;48.758;9.158;2024-01-30T05:10:20;7.22;;;6.53;;
2211;SDS011;48849;48.758;9.158;2024-01-30T05:12:48;10.07;;;6.95;;
2211;SDS011;48849;48.758;9.158;2024-01-30T05:15:15;7.15;;;6.43;;
2211;SDS011;48849;48.758;9.158;2024-01-30T05:17:42;10.73;;;7.35;;
2211;SDS011;48849;48.758;9.158;2024-01-30T05:20:09;7.82;;;7.00;;
2211;SDS011;48849;48.758;9.158;2024-01-30T05:22:37;8.05;;;7.25;;
2211;SDS011;48849;48.758;9.158;2024-01-30T05:25:09;9.07;;;7.82;;
2211;SDS011;48849;48.758;9.158;2024-01-30T05:27:36;8.25;;;7.50;;
2211;SDS011;48849;48.758;9.158;2024-01-30T05:30:05;11.68;;;8.05;;
2211;SDS011;48849;48.758;9.158;2024-01-30T05:32:32;8.25;;;7.40;;
2211;SDS011;48849;48.758;9.158;2024-01-30T05:34:59;10.00;;;6.75;;
2211;SDS011;48849;48.758;9.158;2024-01-30T05:37:26;10.35;;;7.50;;
2211;SDS011;48849;48.758;9.158;2024-01-30T05:39:53;7.95;;;7.15;;
2211;SDS011;48849;48.758;9.158;2024-01-30T05:42:19;7.63;;;6.82;;
2211;SDS011;48849;48.758;9.158;2024-01-30T05:44:46;8.68;;;7.65;;
2211;SDS011;48849;48.758;9.158;2024-01-30T05:47:14;8.15;;;7.30;;
2211;SDS011;48849;48.758;9.158;2024-01-30T05:49:41;11.55;;;6.75;;
2211;SDS011;48849;48.758;9.158;2024-01-30T05:52:08;9.35;;;7.97;;
2211;SDS011;48849;48.758;9.158;2024-01-30T05:54:34;7.03;;;6.15;;
2211;SDS011;48849;48.758;9.158;2024-01-30T05:57:01;7.68;;;6.88;;
2211;SDS011;48849;48.758;9.158;2024-01-30T05:59:28;8.50;;;7.55;;
2211;SDS011;48849;48.758;9.158;2024-01-30T06:01:55;9.18;;;7.38;;
2211;SDS011;48849;48.758;9.158;2024-01-30T06:04:23;9.68;;;7.55;;
2211;SDS011;48849;48.758;9.158;2024-01-30T06:06:50;8.82;;;7.03;;
2211;SDS011;48849;48.758;9.158;2024-01-30T06:09:17;10.02;;;6.88;;
2211;SDS011;48849;48.758;9.158;2024-01-30T06:11:43;12.38;;;7.72;;
2211;SDS011;48849;48.758;9.158;2024-01-30T06:14:11;8.15;;;7.28;;
2211;SDS011;48849;48.758;9.158;2024-01-30T06:16:38;7.82;;;6.43;;
2211;SDS011;48849;48.758;9.158;2024-01-30T06:19:04;12.45;;;6.95;;
2211;SDS011;48849;48.758;9.158;2024-01-30T06:21:33;7.95;;;7.18;;
2211;SDS011;48849;48.758;9.158;2024-01-30T06:24:01;8.02;;;6.90;;
2211;SDS011;48849;48.758;9.158;2024-01-30T06:26:28;8.40;;;7.50;;
2211;SDS011;48849;48.758;9.158;2024-01-30T06:28:55;9.82;;;7.40;;
2211;SDS011;48849;48.758;9.158;2024-01-30T06:31:22;8.30;;;7.45;;
2211;SDS011;48849;48.758;9.158;2024-01-30T06:33:48;7.90;;;7.10;;
2211;SDS011;48849;48.758;9.158;2024-01-30T06:36:15;9.00;;;7.97;;
2211;SDS011;48849;48.758;9.158;2024-01-30T06:38:43;9.60;;;7.60;;
2211;SDS011;48849;48.758;9.158;2024-01-30T06:41:10;8.07;;;7.28;;
2211;SDS011;48849;48.758;9.158;2024-01-30T06:43:37;8.75;;;7.32;;
2211;SDS011;48849;48.758;9.158;2024-01-30T06:46:04;10.60;;;8.02;;
2211;SDS011;48849;48.758;9.158;2024-01-30T06:48:30;8.13;;;7.32;;
2211;SDS011;48849;48.758;9.158;2024-01-30T06:50:57;10.55;;;8.50;;
2211;SDS011;48849;48.758;9.158;2024-01-30T06:53:24;10.00;;;8.40;;
2211;SDS011;48849;48.758;9.158;2024-01-30T06:55:52;8.88;;;7.60;;
2211;SDS011;48849;48.758;9.158;2024-01-30T06:58:19;12.52;;;8.20;;
2211;SDS011;48849;48.758;9.158;2024-01-30T07:00:46;8.77;;;7.90;;
2211;SDS011;48849;48.758;9.158;2024-01-30T07:03:13;11.02;;;7.97;;
2211;SDS011;48849;48.758;9.158;2024-01-30T07:05:39;8.93;;;8.00;;
2211;SDS011;48849;48.758;9.158;2024-01-30T07:08:06;10.95;;;7.70;;
2211;SDS011;48849;48.758;9.158;2024-01-30T07:10:34;9.32;;;7.70;;
2211;SDS011;48849;48.758;9.158;2024-01-30T07:13:02;12.77;;;8.00;;
2211;SDS011;48849;48.758;9.158;2024-01-30T07:15:29;9.13;;;8.18;;
2211;SDS011;48849;48.758;9.158;2024-01-30T07:17:56;9.13;;;8.15;;
2211;SDS011;48849;48.758;9.158;2024-01-30T07:20:22;8.88;;;7.53;;
2211;SDS011;48849;48.758;9.158;2024-01-30T07:22:49;11.57;;;7.30;;
2211;SDS011;48849;48.758;9.158;2024-01-30T07:25:16;9.20;;;7.68;;
2211;SDS011;48849;48.758;9.158;2024-01-30T07:27:43;9.65;;;7.72;;
2211;SDS011;48849;48.758;9.158;2024-01-30T07:30:11;8.63;;;7.72;;
2211;SDS011;48849;48.758;9.158;2024-01-30T07:32:38;10.60;;;8.50;;
2211;SDS011;48849;48.758;9.158;2024-01-30T07:35:05;8.77;;;7.75;;
2211;SDS011;48849;48.758;9.158;2024-01-30T07:37:32;9.02;;;7.50;;
2211;SDS011;48849;48.758;9.158;2024-01-30T07:39:59;8.30;;;7.50;;
2211;SDS011;48849;48.758;9.158;2024-01-30T07:42:26;11.73;;;7.88;;
2211;SDS011;48849;48.758;9.158;2024-01-30T07:44:54;9.85;;;7.15;;
2211;SDS011;48849;48.758;9.158;2024-01-30T07:47:23;9.05;;;7.07;;
2211;SDS011;48849;48.758;9.158;2024-01-30T07:49:50;8.45;;;7.10;;
2211;SDS011;48849;48.758;9.158;2024-01-30T07:52:16;7.60;;;6.80;;
2211;SDS011;48849;48.758;9.158;2024-01-30T07:54:43;8.25;;;7.45;;
2211;SDS011;48849;48.758;9.158;2024-01-30T07:57:10;6.97;;;6.28;;
2211;SDS011;48849;48.758;9.158;2024-01-30T07:59:37;9.60;;;6.60;;
2211;SDS011;48849;48.758;9.158;2024-01-30T08:02:03;8.02;;;6.95;;
2211;SDS011;48849;48.758;9.158;2024-01-30T08:04:31;7.40;;;6.70;;
2211;SDS011;48849;48.758;9.158;2024-01-30T08:06:58;8.40;;;6.47;;
2211;SDS011;48849;48.758;9.158;2024-01-30T08:09:25;10.07;;;6.38;;
2211;SDS011;48849;48.758;9.158;2024-01-30T08:11:51;7.70;;;6.50;;
2211;SDS011;48849;48.758;9.158;2024-01-30T08:14:18;10.15;;;6.90;;
2211;SDS011;48849;48.758;9.158;2024-01-30T08:16:45;11.02;;;7.78;;
2211;SDS011;48849;48.758;9.158;2024-01-30T08:19:12;9.48;;;8.05;;
2211;SDS011;48849;48.758;9.158;2024-01-30T08:21:40;10.88;;;7.80;;
2211;SDS011;48849;48.758;9.158;2024-01-30T08:24:07;9.77;;;8.23;;
2211;SDS011;48849;48.758;9.158;2024-01-30T08:26:35;12.80;;;8.95;;
2211;SDS011;48849;48.758;9.158;2024-01-30T08:29:02;10.88;;;9.30;;
2211;SDS011;48849;48.758;9.158;2024-01-30T08:31:29;12.15;;;9.43;;
2211;SDS011;48849;48.758;9.158;2024-01-30T08:33:55;12.80;;;9.68;;
2211;SDS011;48849;48.758;9.158;2024-01-30T08:36:22;10.07;;;8.63;;
2211;SDS011;48849;48.758;9.158;2024-01-30T08:38:50;10.23;;;8.98;;
2211;SDS011;48849;48.758;9.158;2024-01-30T08:41:17;10.30;;;8.43;;
2211;SDS011;48849;48.758;9.158;2024-01-30T08:43:44;13.75;;;10.40;;
2211;SDS011;48849;48.758;9.158;2024-01-30T08:46:11;11.82;;;9.65;;
2211;SDS011;48849;48.758;9.158;2024-01-30T08:48:38;12.73;;;10.30;;
2211;SDS011;48849;48.758;9.158;2024-01-30T08:51:04;17.23;;;9.57;;
2211;SDS011;48849;48.758;9.158;2024-01-30T08:53:33;10.85;;;9.45;;
2211;SDS011;48849;48.758;9.158;2024-01-30T08:56:02;11.02;;;8.85;;
2211;SDS011;48849;48.758;9.158;2024-01-30T08:58:29;11.00;;;9.38;;
2211;SDS011;48849;48.758;9.158;2024-01-30T09:00:56;11.30;;;9.00;;
2211;SDS011;48849;48.758;9.158;2024-01-30T09:03:23;12.38;;;9.88;;
2211;SDS011;48849;48.758;9.158;2024-01-30T09:05:50;11.70;;;10.13;;
2211;SDS011;48849;48.758;9.158;2024-01-30T09:08:16;11.50;;;10.32;;
2211;SDS011;48849;48.758;9.158;2024-01-30T09:10:43;11.95;;;9.20;;
2211;SDS011;48849;48.758;9.158;2024-01-30T09:13:11;14.57;;;10.00;;
2211;SDS011;48849;48.758;9.158;2024-01-30T09:15:38;12.90;;;9.68;;
2211;SDS011;48849;48.758;9.158;2024-01-30T09:18:05;10.88;;;9.32;;
2211;SDS011;48849;48.758;9.158;2024-01-30T09:20:32;10.88;;;9.77;;
2211;SDS011;48849;48.758;9.158;2024-01-30T09:22:59;11.13;;;8.75;;
2211;SDS011;48849;48.758;9.158;2024-01-30T09:25:26;10.15;;;8.75;;
2211;SDS011;48849;48.758;9.158;2024-01-30T09:27:52;10.30;;;9.20;;
2211;SDS011;48849;48.758;9.158;2024-01-30T09:30:20;12.68;;;9.68;;
2211;SDS011;48849;48.758;9.158;2024-01-30T09:32:47;8.52;;;7.63;;
2211;SDS011;48849;48.758;9.158;2024-01-30T09:35:14;14.10;;;9.68;;
2211;SDS011;48849;48.758;9.158;2024-01-30T09:37:41;11.52;;;8.63;;
2211;SDS011;48849;48.758;9.158;2024-01-30T09:40:08;12.07;;;9.07;;
2211;SDS011;48849;48.758;9.158;2024-01-30T09:42:35;9.52;;;8.30;;
2211;SDS011;48849;48.758;9.158;2024-01-30T09:45:02;11.20;;;9.30;;
2211;SDS011;48849;48.758;9.158;2024-01-30T09:47:36;9.60;;;8.45;;
2211;SDS011;48849;48.758;9.158;2024-01-30T09:50:07;9.20;;;8.23;;
2211;SDS011;48849;48.758;9.158;2024-01-30T09:52:34;10.32;;;8.90;;
2211;SDS011;48849;48.758;9.158;2024-01-30T09:55:02;10.20;;;9.07;;
2211;SDS011;48849;48.758;9.158;2024-01-30T09:57:32;10.57;;;8.65;;
2211;SDS011;48849;48.758;9.158;2024-01-30T09:59:59;13.75;;;9.52;;
2211;SDS011;48849;48.758;9.158;2024-01-30T10:02:26;11.10;;;9.30;;
2211;SDS011;48849;48.758;9.158;2024-01-30T10:04:55;9.77;;;8.77;;
2211;SDS011;48849;48.758;9.158;2024-01-30T10:07:21;15.32;;;9.88;;
2211;SDS011;48849;48.758;9.158;2024-01-30T10:09:48;13.57;;;9.30;;
2211;SDS011;48849;48.758;9.158;2024-01-30T10:12:15;12.25;;;9.95;;
2211;SDS011;48849;48.758;9.158;2024-01-30T10:14:42;17.48;;;11.25;;
2211;SDS011;48849;48.758;9.158;2024-01-30T10:17:09;17.30;;;12.10;;
2211;SDS011;48849;48.758;9.158;2024-01-30T10:19:37;16.10;;;12.10;;
2211;SDS011;48849;48.758;9.158;2024-01-30T10:22:05;16.15;;;12.30;;
2211;SDS011;48849;48.758;9.158;2024-01-30T10:24:33;18.45;;;12.52;;
2211;SDS011;48849;48.758;9.158;2024-01-30T10:27:00;20.38;;;13.10;;
2211;SDS011;48849;48.758;9.158;2024-01-30T10:29:27;16.45;;;12.70;;
2211;SDS011;48849;48.758;9.158;2024-01-30T10:31:57;14.90;;;12.85;;
2211;SDS011;48849;48.758;9.158;2024-01-30T10:34:25;14.40;;;12.50;;
2211;SDS011;48849;48.758;9.158;2024-01-30T10:36:54;14.45;;;12.68;;
2211;SDS011;48849;48.758;9.158;2024-01-30T10:39:27;13.77;;;12.30;;
2211;SDS011;48849;48.758;9.158;2024-01-30T10:41:56;15.27;;;12.18;;
2211;SDS011;48849;48.758;9.158;2024-01-30T10:44:29;16.40;;;13.25;;
2211;SDS011;48849;48.758;9.158;2024-01-30T10:47:03;15.57;;;12.82;;
2211;SDS011;48849;48.758;9.158;2024-01-30T10:49:37;13.60;;;12.18;;
2211;SDS011;48849;48.758;9.158;2024-01-30T10:52:05;16.02;;;13.60;;
2211;SDS011;48849;48.758;9.158;2024-01-30T10:54:35;19.25;;;13.30;;
2211;SDS011;48849;48.758;9.158;2024-01-30T10:57:03;17.48;;;14.13;;
2211;SDS011;48849;48.758;9.158;2024-01-30T10:59:31;16.20;;;13.10;;
2211;SDS011;48849;48.758;9.158;2024-01-30T11:01:58;18.30;;;14.95;;
2211;SDS011;48849;48.758;9.158;2024-01-30T11:04:25;22.02;;;15.63;;
2211;SDS011;48849;48.758;9.158;2024-01-30T11:06:52;15.90;;;13.90;;
2211;SDS011;48849;48.758;9.158;2024-01-30T11:09:20;19.25;;;14.63;;
2211;SDS011;48849;48.758;9.158;2024-01-30T11:11:51;15.45;;;13.82;;
2211;SDS011;48849;48.758;9.158;2024-01-30T11:14:24;16.70;;;14.52;;
2211;SDS011;48849;48.758;9.158;2024-01-30T11:16:51;18.40;;;14.60;;
2211;SDS011;48849;48.758;9.158;2024-01-30T11:19:22;19.13;;;13.40;;
2211;SDS011;48849;48.758;9.158;2024-01-30T11:21:50;15.60;;;13.95;;
2211;SDS011;48849;48.758;9.158;2024-01-30T11:24:19;17.08;;;14.07;;
2211;SDS011;48849;48.758;9.158;2024-01-30T11:26:46;19.92;;;14.88;;
2211;SDS011;48849;48.758;9.158;2024-01-30T11:29:15;19.33;;;14.13;;
2211;SDS011;48849;48.758;9.158;2024-01-30T11:31:51;25.13;;;19.60;;
2211;SDS011;48849;48.758;9.158;2024-01-30T11:34:18;22.10;;;17.08;;
2211;SDS011;48849;48.758;9.158;2024-01-30T11:36:47;26.08;;;18.33;;
2211;SDS011;48849;48.758;9.158;2024-01-30T11:39:18;25.15;;;18.35;;
2211;SDS011;48849;48.758;9.158;2024-01-30T11:41:47;27.95;;;18.60;;
2211;SDS011;48849;48.758;9.158;2024-01-30T11:44:17;25.35;;;20.10;;
2211;SDS011;48849;48.758;9.158;2024-01-30T11:46:45;25.27;;;18.70;;
2211;SDS011;48849;48.758;9.158;2024-01-30T11:49:12;26.85;;;20.20;;
2211;SDS011;48849;48.758;9.158;2024-01-30T11:51:39;25.80;;;20.30;;
2211;SDS011;48849;48.758;9.158;2024-01-30T11:54:07;24.15;;;18.40;;
2211;SDS011;48849;48.758;9.158;2024-01-30T11:56:34;23.52;;;18.95;;
2211;SDS011;48849;48.758;9.158;2024-01-30T11:59:00;22.88;;;18.30;;
2211;SDS011;48849;48.758;9.158;2024-01-30T12:01:28;22.70;;;17.13;;
2211;SDS011;48849;48.758;9.158;2024-01-30T12:03:56;22.85;;;16.52;;
2211;SDS011;48849;48.758;9.158;2024-01-30T12:06:23;19.85;;;16.20;;
2211;SDS011;48849;48.758;9.158;2024-01-30T12:08:56;21.23;;;16.55;;
2211;SDS011;48849;48.758;9.158;2024-01-30T12:11:24;17.42;;;14.63;;
2211;SDS011;48849;48.758;9.158;2024-01-30T12:13:51;19.65;;;15.43;;
2211;SDS011;48849;48.758;9.158;2024-01-30T12:16:19;18.55;;;15.32;;
2211;SDS011;48849;48.758;9.158;2024-01-30T12:18:47;15.52;;;13.90;;
2211;SDS011;48849;48.758;9.158;2024-01-30T12:21:16;18.70;;;14.20;;
2211;SDS011;48849;48.758;9.158;2024-01-30T12:23:44;17.60;;;14.18;;
2211;SDS011;48849;48.758;9.158;2024-01-30T12:26:11;14.75;;;13.20;;
2211;SDS011;48849;48.758;9.158;2024-01-30T12:28:47;17.42;;;13.93;;
2211;SDS011;48849;48.758;9.158;2024-01-30T12:31:14;18.58;;;13.98;;
2211;SDS011;48849;48.758;9.158;2024-01-30T12:33:41;16.42;;;14.20;;
2211;SDS011;48849;48.758;9.158;2024-01-30T12:36:09;17.58;;;13.48;;
2211;SDS011;48849;48.758;9.158;2024-01-30T12:38:37;19.98;;;13.77;;
2211;SDS011;48849;48.758;9.158;2024-01-30T12:41:04;17.58;;;13.82;;
2211;SDS011;48849;48.758;9.158;2024-01-30T12:43:33;19.38;;;14.00;;
2211;SDS011;48849;48.758;9.158;2024-01-30T12:46:00;15.20;;;13.00;;
2211;SDS011;48849;48.758;9.158;2024-01-30T12:48:27;13.52;;;12.23;;
2211;SDS011;48849;48.758;9.158;2024-01-30T12:50:55;20.40;;;12.55;;
2211;SDS011;48849;48.758;9.158;2024-01-30T12:53:23;14.25;;;12.77;;
2211;SDS011;48849;48.758;9.158;2024-01-30T12:55:50;14.15;;;12.60;;
2211;SDS011;48849;48.758;9.158;2024-01-30T12:58:16;14.68;;;12.68;;
2211;SDS011;48849;48.758;9.158;2024-01-30T13:00:43;14.07;;;12.02;;
2211;SDS011;48849;48.758;9.158;2024-01-30T13:03:10;14.57;;;12.02;;
2211;SDS011;48849;48.758;9.158;2024-01-30T13:05:37;15.43;;;12.77;;
2211;SDS011;48849;48.758;9.158;2024-01-30T13:08:04;15.57;;;12.40;;
2211;SDS011;48849;48.758;9.158;2024-01-30T13:10:32;13.63;;;12.13;;
2211;SDS011;48849;48.758;9.158;2024-01-30T13:12:59;17.58;;;13.25;;
2211;SDS011;48849;48.758;9.158;2024-01-30T13:15:26;15.75;;;11.90;;
2211;SDS011;48849;48.758;9.158;2024-01-30T13:17:52;17.85;;;13.15;;
2211;SDS011;48849;48.758;9.158;2024-01-30T13:20:19;14.57;;;12.27;;
2211;SDS011;48849;48.758;9.158;2024-01-30T13:22:47;20.17;;;12.20;;
2211;SDS011;48849;48.758;9.158;2024-01-30T13:25:15;15.80;;;11.27;;
2211;SDS011;48849;48.758;9.158;2024-01-30T13:27:43;13.63;;;11.77;;
2211;SDS011;48849;48.758;9.158;2024-01-30T13:30:10;13.75;;;11.77;;
2211;SDS011;48849;48.758;9.158;2024-01-30T13:32:37;14.88;;;12.23;;
2211;SDS011;48849;48.758;9.158;2024-01-30T13:35:07;15.35;;;12.55;;
2211;SDS011;48849;48.758;9.158;2024-01-30T13:37:34;15.88;;;12.80;;
2211;SDS011;48849;48.758;9.158;2024-01-30T13:40:01;17.70;;;12.07;;
2211;SDS011;48849;48.758;9.158;2024-01-30T13:42:31;15.93;;;11.90;;
2211;SDS011;48849;48.758;9.158;2024-01-30T13:44:59;15.43;;;12.35;;
2211;SDS011;48849;48.758;9.158;2024-01-30T13:47:26;18.92;;;13.30;;
2211;SDS011;48849;48.758;9.158;2024-01-30T13:49:53;15.80;;;13.05;;
2211;SDS011;48849;48.758;9.158;2024-01-30T13:52:20;21.55;;;13.95;;
2211;SDS011;48849;48.758;9.158;2024-01-30T13:54:47;20.55;;;12.77;;
2211;SDS011;48849;48.758;9.158;2024-01-30T13:57:13;22.38;;;13.05;;
2211;SDS011;48849;48.758;9.158;2024-01-30T13:59:40;21.42;;;13.48;;
2211;SDS011;48849;48.758;9.158;2024-01-30T14:02:08;23.10;;;12.75;;
2211;SDS011;48849;48.758;9.158;2024-01-30T14:04:35;18.23;;;12.00;;
2211;SDS011;48849;48.758;9.158;2024-01-30T14:07:02;20.70;;;10.52;;
2211;SDS011;48849;48.758;9.158;2024-01-30T14:09:29;15.50;;;11.60;;
2211;SDS011;48849;48.758;9.158;2024-01-30T14:11:57;20.83;;;13.60;;
2211;SDS011;48849;48.758;9.158;2024-01-30T14:14:24;14.57;;;12.25;;
2211;SDS011;48849;48.758;9.158;2024-01-30T14:16:50;18.27;;;11.77;;
2211;SDS011;48849;48.758;9.158;2024-01-30T14:19:18;18.42;;;12.00;;
2211;SDS011;48849;48.758;9.158;2024-01-30T14:21:45;13.75;;;11.02;;
2211;SDS011;48849;48.758;9.158;2024-01-30T14:24:12;13.75;;;10.93;;
2211;SDS011;48849;48.758;9.158;2024-01-30T14:26:39;12.80;;;10.65;;
2211;SDS011;48849;48.758;9.158;2024-01-30T14:29:04;13.43;;;10.63;;
2211;SDS011;48849;48.758;9.158;2024-01-30T14:31:31;14.80;;;10.95;;
2211;SDS011;48849;48.758;9.158;2024-01-30T14:33:58;13.68;;;10.90;;
2211;SDS011;48849;48.758;9.158;2024-01-30T14:36:26;14.23;;;10.55;;
2211;SDS011;48849;48.758;9.158;2024-01-30T14:38:53;12.80;;;10.32;;
2211;SDS011;48849;48.758;9.158;2024-01-30T14:41:20;15.07;;;10.55;;
2211;SDS011;48849;48.758;9.158;2024-01-30T14:43:47;13.40;;;9.85;;
2211;SDS011;48849;48.758;9.158;2024-01-30T14:46:14;12.43;;;10.50;;
2211;SDS011;48849;48.758;9.158;2024-01-30T14:48:41;13.25;;;11.20;;
2211;SDS011;48849;48.758;9.158;2024-01-30T14:51:08;21.33;;;12.55;;